Glenn Heights, Texas
Current Conditions -  °F | °C
As of 7:15 AM on Monday 22 Dec 2014 (Local Time) from KJWY Reporting Station
Clear Clear  
Wind Chill: 52°   Ceiling: Unl
Heat Index: 52°   Visibility: 10mi
Dew Point: 52°   Wind: 13mph
Humidity: 99%   Direction: 190°S
Pressure: 29.63"   Gusts: NA
Location:  32.515°N, 96.8153°W
Report Text: KJWY 221315Z AUTO 19011KT 10SM CLR 11/11 A2963 RMK AO2 T01120110
Loading
Personal Weather Stations






























Interactive Weather Map New forecast layout! Learn more

10-Day Weather Forecast

Advertisements
Track Severe Weather on mobile